MET2388 - Rochester to Kansas City

Bombardier Dash-8-Q200
838AH
1 hr 15 mins
294 nm
Scheduled - Daily

Bid/PiRep Status

Bid was submitted on Dec 16 2016.

PiRep # 74389: Approved by Dave Nichols on December 20th, 2016 10:17 UTC

Departure

Departing from
Rochester (RST)
Departure gate
A4
Scheduled Departure
GMT 2135
Local 1535
METAR KRST 280215Z 10003KT 10SM SCT029 05/04 A2999 RMK AO2 T00500039
TAF KRST 272332Z 2800/2824 03004KT P6SM BKN035 FM280500 VRB03KT P6SM BKN030 FM280800 02004KT 4SM BR OVC010 FM281000 03004KT 1SM BR BKN003 FM281400 07005KT 3SM BR BKN008 FM281600 08005KT P6SM SCT035

Route Map

Planning Resources

KRST LMN BSQ BSQ4
RST MCW J25 DSM LMN BQS4
KRST ZUTEL DSM STJ MAXEE KMCI
MCW DSM LMN BQS4
KRST DSM KMCI
Route:
OFP Layout:
Units:
Detailed Navlog:
ETOPS Planning:
Plan Stepclimbs:
Runway Analysis:
Include NOTAMS:
FIR NOTAMS:
Flight Maps:

Return Flights

MET2385
Bombardier Dash-8-Q200
1500 GMT
MET2387
Bombardier Dash-8-Q200
2000 GMT

Popularity

Hub Current Bids PiReps this month Total PiReps
KMCI 0 0 4
KLAX 0 0 0
KBOS 0 0 0